sensor_id;sensor_type;location;lat;lon;timestamp;temperature;humidity
29281;DHT22;25048;49.590;11.026;2023-05-07T00:02:21;12.00;99.90
29281;DHT22;25048;49.590;11.026;2023-05-07T00:04:49;12.00;99.90
29281;DHT22;25048;49.590;11.026;2023-05-07T00:07:16;12.00;99.90
29281;DHT22;25048;49.590;11.026;2023-05-07T00:09:44;12.10;99.90
29281;DHT22;25048;49.590;11.026;2023-05-07T00:12:11;12.10;99.90
29281;DHT22;25048;49.590;11.026;2023-05-07T00:14:39;12.10;99.90
29281;DHT22;25048;49.590;11.026;2023-05-07T00:17:07;12.10;99.90
29281;DHT22;25048;49.590;11.026;2023-05-07T00:19:34;12.10;99.90
29281;DHT22;25048;49.590;11.026;2023-05-07T00:22:02;12.00;99.90
29281;DHT22;25048;49.590;11.026;2023-05-07T00:24:29;12.00;99.90
29281;DHT22;25048;49.590;11.026;2023-05-07T00:26:57;11.90;99.90
29281;DHT22;25048;49.590;11.026;2023-05-07T00:29:24;11.90;99.90
29281;DHT22;25048;49.590;11.026;2023-05-07T00:31:52;11.90;99.90
29281;DHT22;25048;49.590;11.026;2023-05-07T00:34:21;11.90;99.90
29281;DHT22;25048;49.590;11.026;2023-05-07T00:36:48;11.80;99.90
29281;DHT22;25048;49.590;11.026;2023-05-07T00:39:16;11.80;99.90
29281;DHT22;25048;49.590;11.026;2023-05-07T00:41:43;11.80;99.90
29281;DHT22;25048;49.590;11.026;2023-05-07T00:44:11;11.80;99.90
29281;DHT22;25048;49.590;11.026;2023-05-07T00:46:39;11.80;99.90
29281;DHT22;25048;49.590;11.026;2023-05-07T00:49:07;11.80;99.90
29281;DHT22;25048;49.590;11.026;2023-05-07T00:51:34;11.80;99.90
29281;DHT22;25048;49.590;11.026;2023-05-07T00:54:03;11.80;99.90
29281;DHT22;25048;49.590;11.026;2023-05-07T00:56:32;11.80;99.90
29281;DHT22;25048;49.590;11.026;2023-05-07T00:59:03;11.80;99.90
29281;DHT22;25048;49.590;11.026;2023-05-07T01:01:32;11.80;99.90
29281;DHT22;25048;49.590;11.026;2023-05-07T01:03:59;11.70;99.90
29281;DHT22;25048;49.590;11.026;2023-05-07T01:06:27;11.70;99.90
29281;DHT22;25048;49.590;11.026;2023-05-07T01:08:57;11.70;99.90
29281;DHT22;25048;49.590;11.026;2023-05-07T01:11:25;11.70;99.90
29281;DHT22;25048;49.590;11.026;2023-05-07T01:13:53;11.60;99.90
29281;DHT22;25048;49.590;11.026;2023-05-07T01:16:21;11.50;99.90
29281;DHT22;25048;49.590;11.026;2023-05-07T01:18:48;11.50;99.90
29281;DHT22;25048;49.590;11.026;2023-05-07T01:21:18;11.50;99.90
29281;DHT22;25048;49.590;11.026;2023-05-07T01:23:46;11.50;99.90
29281;DHT22;25048;49.590;11.026;2023-05-07T01:26:14;11.50;99.90
29281;DHT22;25048;49.590;11.026;2023-05-07T01:28:42;11.40;99.90
29281;DHT22;25048;49.590;11.026;2023-05-07T01:31:10;11.50;99.90
29281;DHT22;25048;49.590;11.026;2023-05-07T01:33:40;11.40;99.90
29281;DHT22;25048;49.590;11.026;2023-05-07T01:36:09;11.50;99.90
29281;DHT22;25048;49.590;11.026;2023-05-07T01:38:38;11.50;99.90
29281;DHT22;25048;49.590;11.026;2023-05-07T01:41:07;11.50;99.90
29281;DHT22;25048;49.590;11.026;2023-05-07T01:43:34;11.60;99.90
29281;DHT22;25048;49.590;11.026;2023-05-07T01:46:03;11.60;99.90
29281;DHT22;25048;49.590;11.026;2023-05-07T01:48:31;11.60;99.90
29281;DHT22;25048;49.590;11.026;2023-05-07T01:51:00;11.60;99.90
29281;DHT22;25048;49.590;11.026;2023-05-07T01:53:28;11.60;99.90
29281;DHT22;25048;49.590;11.026;2023-05-07T01:55:56;11.60;99.90
29281;DHT22;25048;49.590;11.026;2023-05-07T01:58:23;11.60;99.90
29281;DHT22;25048;49.590;11.026;2023-05-07T02:00:51;11.70;99.90
29281;DHT22;25048;49.590;11.026;2023-05-07T02:03:18;11.70;99.90
29281;DHT22;25048;49.590;11.026;2023-05-07T02:05:46;11.70;99.90
29281;DHT22;25048;49.590;11.026;2023-05-07T02:08:13;11.80;99.90
29281;DHT22;25048;49.590;11.026;2023-05-07T02:10:41;11.80;99.90
29281;DHT22;25048;49.590;11.026;2023-05-07T02:13:08;11.90;99.90
29281;DHT22;25048;49.590;11.026;2023-05-07T02:15:36;11.90;99.90
29281;DHT22;25048;49.590;11.026;2023-05-07T02:18:08;11.90;99.90
29281;DHT22;25048;49.590;11.026;2023-05-07T02:20:38;11.80;99.90
29281;DHT22;25048;49.590;11.026;2023-05-07T02:23:06;11.80;99.90
29281;DHT22;25048;49.590;11.026;2023-05-07T02:25:33;11.80;99.90
29281;DHT22;25048;49.590;11.026;2023-05-07T02:28:01;11.80;99.90
29281;DHT22;25048;49.590;11.026;2023-05-07T02:30:29;11.70;99.90
29281;DHT22;25048;49.590;11.026;2023-05-07T02:32:56;11.70;99.90
29281;DHT22;25048;49.590;11.026;2023-05-07T02:35:25;11.70;99.90
29281;DHT22;25048;49.590;11.026;2023-05-07T02:37:52;11.70;99.90
29281;DHT22;25048;49.590;11.026;2023-05-07T02:40:20;11.60;99.90
29281;DHT22;25048;49.590;11.026;2023-05-07T02:42:47;11.60;99.90
29281;DHT22;25048;49.590;11.026;2023-05-07T02:45:15;11.60;99.90
29281;DHT22;25048;49.590;11.026;2023-05-07T02:47:42;11.50;99.90
29281;DHT22;25048;49.590;11.026;2023-05-07T02:50:10;11.50;99.90
29281;DHT22;25048;49.590;11.026;2023-05-07T02:52:38;11.50;99.90
29281;DHT22;25048;49.590;11.026;2023-05-07T02:55:07;11.50;99.90
29281;DHT22;25048;49.590;11.026;2023-05-07T02:57:35;11.50;99.90
29281;DHT22;25048;49.590;11.026;2023-05-07T03:00:19;11.40;99.90
29281;DHT22;25048;49.590;11.026;2023-05-07T03:02:46;11.40;99.90
29281;DHT22;25048;49.590;11.026;2023-05-07T03:05:14;11.30;99.90
29281;DHT22;25048;49.590;11.026;2023-05-07T03:07:41;11.20;99.90
29281;DHT22;25048;49.590;11.026;2023-05-07T03:10:11;11.10;99.90
29281;DHT22;25048;49.590;11.026;2023-05-07T03:12:39;11.00;99.90
29281;DHT22;25048;49.590;11.026;2023-05-07T03:15:07;10.90;99.90
29281;DHT22;25048;49.590;11.026;2023-05-07T03:17:35;10.80;99.90
29281;DHT22;25048;49.590;11.026;2023-05-07T03:20:03;10.70;99.90
29281;DHT22;25048;49.590;11.026;2023-05-07T03:22:30;10.60;99.90
29281;DHT22;25048;49.590;11.026;2023-05-07T03:24:58;10.60;99.90
29281;DHT22;25048;49.590;11.026;2023-05-07T03:27:26;10.50;99.90
29281;DHT22;25048;49.590;11.026;2023-05-07T03:29:53;10.40;99.90
29281;DHT22;25048;49.590;11.026;2023-05-07T03:32:21;10.40;99.90
29281;DHT22;25048;49.590;11.026;2023-05-07T03:34:48;10.30;99.90
29281;DHT22;25048;49.590;11.026;2023-05-07T03:37:16;10.20;99.90
29281;DHT22;25048;49.590;11.026;2023-05-07T03:39:43;10.20;99.90
29281;DHT22;25048;49.590;11.026;2023-05-07T03:42:11;10.10;99.90
29281;DHT22;25048;49.590;11.026;2023-05-07T03:44:38;10.10;99.90
29281;DHT22;25048;49.590;11.026;2023-05-07T03:47:06;10.10;99.90
29281;DHT22;25048;49.590;11.026;2023-05-07T03:49:34;10.00;99.90
29281;DHT22;25048;49.590;11.026;2023-05-07T03:52:01;10.00;99.90
29281;DHT22;25048;49.590;11.026;2023-05-07T03:54:30;9.90;99.90
29281;DHT22;25048;49.590;11.026;2023-05-07T03:56:58;9.90;99.90
29281;DHT22;25048;49.590;11.026;2023-05-07T03:59:26;9.80;99.90
29281;DHT22;25048;49.590;11.026;2023-05-07T04:01:53;9.80;99.90
29281;DHT22;25048;49.590;11.026;2023-05-07T04:04:21;9.80;99.90
29281;DHT22;25048;49.590;11.026;2023-05-07T04:06:48;9.80;99.90
29281;DHT22;25048;49.590;11.026;2023-05-07T04:09:16;9.80;99.90
29281;DHT22;25048;49.590;11.026;2023-05-07T04:11:43;9.80;99.90
29281;DHT22;25048;49.590;11.026;2023-05-07T04:14:11;9.80;99.90
29281;DHT22;25048;49.590;11.026;2023-05-07T04:16:39;9.80;99.90
29281;DHT22;25048;49.590;11.026;2023-05-07T04:19:06;9.90;99.90
29281;DHT22;25048;49.590;11.026;2023-05-07T04:21:34;10.00;99.90
29281;DHT22;25048;49.590;11.026;2023-05-07T04:24:03;10.10;99.90
29281;DHT22;25048;49.590;11.026;2023-05-07T04:26:31;10.20;99.90
29281;DHT22;25048;49.590;11.026;2023-05-07T04:28:59;10.30;99.90
29281;DHT22;25048;49.590;11.026;2023-05-07T04:31:26;10.50;99.90
29281;DHT22;25048;49.590;11.026;2023-05-07T04:33:54;10.60;99.90
29281;DHT22;25048;49.590;11.026;2023-05-07T04:36:21;10.70;99.90
29281;DHT22;25048;49.590;11.026;2023-05-07T04:38:49;10.80;99.90
29281;DHT22;25048;49.590;11.026;2023-05-07T04:41:16;10.90;99.90
29281;DHT22;25048;49.590;11.026;2023-05-07T04:43:44;11.10;99.90
29281;DHT22;25048;49.590;11.026;2023-05-07T04:46:12;11.20;99.90
29281;DHT22;25048;49.590;11.026;2023-05-07T04:48:39;11.40;99.90
29281;DHT22;25048;49.590;11.026;2023-05-07T04:51:07;11.60;99.90
29281;DHT22;25048;49.590;11.026;2023-05-07T04:53:34;11.80;99.90
29281;DHT22;25048;49.590;11.026;2023-05-07T04:56:02;12.00;99.90
29281;DHT22;25048;49.590;11.026;2023-05-07T04:58:29;12.30;99.90
29281;DHT22;25048;49.590;11.026;2023-05-07T05:00:58;12.60;99.90
29281;DHT22;25048;49.590;11.026;2023-05-07T05:03:26;12.80;99.90
29281;DHT22;25048;49.590;11.026;2023-05-07T05:05:54;13.10;99.90
29281;DHT22;25048;49.590;11.026;2023-05-07T05:08:21;13.40;99.90
29281;DHT22;25048;49.590;11.026;2023-05-07T05:10:49;13.60;99.90
29281;DHT22;25048;49.590;11.026;2023-05-07T05:13:16;13.80;99.90
29281;DHT22;25048;49.590;11.026;2023-05-07T05:15:44;13.90;99.90
29281;DHT22;25048;49.590;11.026;2023-05-07T05:18:12;14.10;99.90
29281;DHT22;25048;49.590;11.026;2023-05-07T05:20:39;14.20;99.90
29281;DHT22;25048;49.590;11.026;2023-05-07T05:23:07;14.30;99.90
29281;DHT22;25048;49.590;11.026;2023-05-07T05:25:35;14.50;99.90
29281;DHT22;25048;49.590;11.026;2023-05-07T05:28:03;14.50;99.90
29281;DHT22;25048;49.590;11.026;2023-05-07T05:30:31;14.60;99.90
29281;DHT22;25048;49.590;11.026;2023-05-07T05:32:58;14.60;99.90
29281;DHT22;25048;49.590;11.026;2023-05-07T05:35:26;14.70;99.90
29281;DHT22;25048;49.590;11.026;2023-05-07T05:37:54;14.80;99.90
29281;DHT22;25048;49.590;11.026;2023-05-07T05:40:21;14.90;99.90
29281;DHT22;25048;49.590;11.026;2023-05-07T05:42:49;15.00;99.90
29281;DHT22;25048;49.590;11.026;2023-05-07T05:45:16;15.00;99.90
29281;DHT22;25048;49.590;11.026;2023-05-07T05:47:44;15.10;99.90
29281;DHT22;25048;49.590;11.026;2023-05-07T05:50:11;15.30;99.90
29281;DHT22;25048;49.590;11.026;2023-05-07T05:52:39;15.50;99.90
29281;DHT22;25048;49.590;11.026;2023-05-07T05:55:07;15.60;99.90
29281;DHT22;25048;49.590;11.026;2023-05-07T05:57:35;15.60;99.90
29281;DHT22;25048;49.590;11.026;2023-05-07T06:00:03;15.70;99.90
29281;DHT22;25048;49.590;11.026;2023-05-07T06:02:31;15.80;99.90
29281;DHT22;25048;49.590;11.026;2023-05-07T06:04:58;15.80;99.90
29281;DHT22;25048;49.590;11.026;2023-05-07T06:07:26;15.90;99.90
29281;DHT22;25048;49.590;11.026;2023-05-07T06:09:54;16.10;99.90
29281;DHT22;25048;49.590;11.026;2023-05-07T06:12:21;16.20;99.90
29281;DHT22;25048;49.590;11.026;2023-05-07T06:14:49;16.40;99.90
29281;DHT22;25048;49.590;11.026;2023-05-07T06:17:17;16.50;99.90
29281;DHT22;25048;49.590;11.026;2023-05-07T06:19:45;16.60;99.90
29281;DHT22;25048;49.590;11.026;2023-05-07T06:22:12;16.60;99.90
29281;DHT22;25048;49.590;11.026;2023-05-07T06:24:40;16.50;99.90
29281;DHT22;25048;49.590;11.026;2023-05-07T06:27:07;16.40;99.90
29281;DHT22;25048;49.590;11.026;2023-05-07T06:29:35;16.40;99.90
29281;DHT22;25048;49.590;11.026;2023-05-07T06:32:14;16.50;99.90
29281;DHT22;25048;49.590;11.026;2023-05-07T06:34:39;16.50;99.90
29281;DHT22;25048;49.590;11.026;2023-05-07T06:37:07;16.50;99.90
29281;DHT22;25048;49.590;11.026;2023-05-07T06:39:34;16.60;99.90
29281;DHT22;25048;49.590;11.026;2023-05-07T06:42:02;16.60;99.90
29281;DHT22;25048;49.590;11.026;2023-05-07T06:44:31;16.50;99.90
29281;DHT22;25048;49.590;11.026;2023-05-07T06:46:58;16.50;99.90
29281;DHT22;25048;49.590;11.026;2023-05-07T06:49:26;16.60;99.90
29281;DHT22;25048;49.590;11.026;2023-05-07T06:51:54;16.70;99.90
29281;DHT22;25048;49.590;11.026;2023-05-07T06:54:22;16.90;99.90
29281;DHT22;25048;49.590;11.026;2023-05-07T06:56:50;17.10;99.90
29281;DHT22;25048;49.590;11.026;2023-05-07T06:59:17;17.30;99.90
29281;DHT22;25048;49.590;11.026;2023-05-07T07:01:45;17.40;99.90
29281;DHT22;25048;49.590;11.026;2023-05-07T07:04:13;17.50;99.90
29281;DHT22;25048;49.590;11.026;2023-05-07T07:06:41;17.80;99.90
29281;DHT22;25048;49.590;11.026;2023-05-07T07:09:08;18.00;99.90
29281;DHT22;25048;49.590;11.026;2023-05-07T07:11:36;18.30;99.90
29281;DHT22;25048;49.590;11.026;2023-05-07T07:14:03;18.50;99.90
29281;DHT22;25048;49.590;11.026;2023-05-07T07:16:31;18.70;99.90
29281;DHT22;25048;49.590;11.026;2023-05-07T07:18:58;19.00;99.90
29281;DHT22;25048;49.590;11.026;2023-05-07T07:21:26;19.20;99.90
29281;DHT22;25048;49.590;11.026;2023-05-07T07:23:54;19.30;99.90
29281;DHT22;25048;49.590;11.026;2023-05-07T07:26:21;19.30;99.90
29281;DHT22;25048;49.590;11.026;2023-05-07T07:28:49;19.40;99.90
29281;DHT22;25048;49.590;11.026;2023-05-07T07:31:16;19.40;99.90
29281;DHT22;25048;49.590;11.026;2023-05-07T07:33:44;19.40;99.90
29281;DHT22;25048;49.590;11.026;2023-05-07T07:36:11;19.50;99.90
29281;DHT22;25048;49.590;11.026;2023-05-07T07:38:39;19.70;99.90
29281;DHT22;25048;49.590;11.026;2023-05-07T07:41:08;19.80;99.90
29281;DHT22;25048;49.590;11.026;2023-05-07T07:43:36;19.90;99.90
29281;DHT22;25048;49.590;11.026;2023-05-07T07:46:03;20.00;99.90
29281;DHT22;25048;49.590;11.026;2023-05-07T07:48:31;20.10;99.90
29281;DHT22;25048;49.590;11.026;2023-05-07T07:50:58;20.20;99.90
29281;DHT22;25048;49.590;11.026;2023-05-07T07:53:26;20.30;99.90
29281;DHT22;25048;49.590;11.026;2023-05-07T07:55:53;20.30;99.90
29281;DHT22;25048;49.590;11.026;2023-05-07T07:58:21;20.40;99.90
29281;DHT22;25048;49.590;11.026;2023-05-07T08:00:50;20.30;99.90
29281;DHT22;25048;49.590;11.026;2023-05-07T08:03:17;20.30;99.90
29281;DHT22;25048;49.590;11.026;2023-05-07T08:05:46;20.30;99.90
29281;DHT22;25048;49.590;11.026;2023-05-07T08:08:13;20.10;99.90
29281;DHT22;25048;49.590;11.026;2023-05-07T08:10:41;20.10;99.90
29281;DHT22;25048;49.590;11.026;2023-05-07T08:13:08;20.30;99.90
29281;DHT22;25048;49.590;11.026;2023-05-07T08:15:36;20.40;99.90
29281;DHT22;25048;49.590;11.026;2023-05-07T08:18:04;20.70;99.90
29281;DHT22;25048;49.590;11.026;2023-05-07T08:20:31;21.00;99.90
29281;DHT22;25048;49.590;11.026;2023-05-07T08:23:00;21.30;99.90
29281;DHT22;25048;49.590;11.026;2023-05-07T08:25:27;21.40;99.90
29281;DHT22;25048;49.590;11.026;2023-05-07T08:27:55;21.40;99.90
29281;DHT22;25048;49.590;11.026;2023-05-07T08:30:22;21.40;99.90
29281;DHT22;25048;49.590;11.026;2023-05-07T08:32:50;21.30;99.90
29281;DHT22;25048;49.590;11.026;2023-05-07T08:35:17;21.20;99.90
29281;DHT22;25048;49.590;11.026;2023-05-07T08:37:45;21.20;99.90
29281;DHT22;25048;49.590;11.026;2023-05-07T08:40:12;21.10;99.90
29281;DHT22;25048;49.590;11.026;2023-05-07T08:42:40;21.00;99.90
29281;DHT22;25048;49.590;11.026;2023-05-07T08:45:10;21.10;99.90
29281;DHT22;25048;49.590;11.026;2023-05-07T08:47:43;21.20;99.90
29281;DHT22;25048;49.590;11.026;2023-05-07T08:50:12;21.50;99.90
29281;DHT22;25048;49.590;11.026;2023-05-07T08:52:40;21.60;99.90
29281;DHT22;25048;49.590;11.026;2023-05-07T08:55:10;21.90;99.90
29281;DHT22;25048;49.590;11.026;2023-05-07T08:57:37;22.10;99.90
29281;DHT22;25048;49.590;11.026;2023-05-07T09:00:05;22.40;99.90
29281;DHT22;25048;49.590;11.026;2023-05-07T09:02:35;22.50;99.90
29281;DHT22;25048;49.590;11.026;2023-05-07T09:05:03;22.50;99.90
29281;DHT22;25048;49.590;11.026;2023-05-07T09:07:31;22.70;99.90
29281;DHT22;25048;49.590;11.026;2023-05-07T09:10:00;23.00;99.90
29281;DHT22;25048;49.590;11.026;2023-05-07T09:12:28;23.30;99.90
29281;DHT22;25048;49.590;11.026;2023-05-07T09:14:55;23.80;99.90
29281;DHT22;25048;49.590;11.026;2023-05-07T09:17:23;23.90;99.90
29281;DHT22;25048;49.590;11.026;2023-05-07T09:19:50;24.00;99.90
29281;DHT22;25048;49.590;11.026;2023-05-07T09:22:19;23.70;99.90
29281;DHT22;25048;49.590;11.026;2023-05-07T09:24:49;23.60;99.90
29281;DHT22;25048;49.590;11.026;2023-05-07T09:27:17;23.30;99.90
29281;DHT22;25048;49.590;11.026;2023-05-07T09:29:45;23.20;99.90
29281;DHT22;25048;49.590;11.026;2023-05-07T09:32:12;23.40;99.90
29281;DHT22;25048;49.590;11.026;2023-05-07T09:35:01;23.50;99.90
29281;DHT22;25048;49.590;11.026;2023-05-07T09:37:31;23.70;99.90
29281;DHT22;25048;49.590;11.026;2023-05-07T09:39:59;23.90;99.90
29281;DHT22;25048;49.590;11.026;2023-05-07T09:42:26;24.20;99.90
29281;DHT22;25048;49.590;11.026;2023-05-07T09:44:54;24.30;99.90
29281;DHT22;25048;49.590;11.026;2023-05-07T09:47:23;24.30;99.90
29281;DHT22;25048;49.590;11.026;2023-05-07T09:49:55;24.30;99.90
29281;DHT22;25048;49.590;11.026;2023-05-07T09:52:23;24.60;99.90
29281;DHT22;25048;49.590;11.026;2023-05-07T09:54:51;24.80;99.90
29281;DHT22;25048;49.590;11.026;2023-05-07T09:57:22;25.00;99.90
29281;DHT22;25048;49.590;11.026;2023-05-07T09:59:52;25.10;98.30
29281;DHT22;25048;49.590;11.026;2023-05-07T10:02:21;25.40;99.40
29281;DHT22;25048;49.590;11.026;2023-05-07T10:04:48;25.80;99.90
29281;DHT22;25048;49.590;11.026;2023-05-07T10:07:17;26.00;97.80
29281;DHT22;25048;49.590;11.026;2023-05-07T10:09:45;26.10;96.30
29281;DHT22;25048;49.590;11.026;2023-05-07T10:12:13;26.10;96.70
29281;DHT22;25048;49.590;11.026;2023-05-07T10:14:41;26.30;97.00
29281;DHT22;25048;49.590;11.026;2023-05-07T10:17:09;26.10;95.00
29281;DHT22;25048;49.590;11.026;2023-05-07T10:19:38;26.00;95.50
29281;DHT22;25048;49.590;11.026;2023-05-07T10:22:08;26.00;97.10
29281;DHT22;25048;49.590;11.026;2023-05-07T10:24:37;25.90;95.80
29281;DHT22;25048;49.590;11.026;2023-05-07T10:27:12;26.00;94.50
29281;DHT22;25048;49.590;11.026;2023-05-07T10:32:42;26.40;93.80
29281;DHT22;25048;49.590;11.026;2023-05-07T10:35:16;26.40;94.70
29281;DHT22;25048;49.590;11.026;2023-05-07T10:37:44;26.10;93.60
29281;DHT22;25048;49.590;11.026;2023-05-07T10:40:12;25.70;93.20
29281;DHT22;25048;49.590;11.026;2023-05-07T10:42:55;25.60;93.30
29281;DHT22;25048;49.590;11.026;2023-05-07T10:45:23;25.60;92.90
29281;DHT22;25048;49.590;11.026;2023-05-07T10:48:14;25.70;93.10
29281;DHT22;25048;49.590;11.026;2023-05-07T10:50:43;25.90;95.00
29281;DHT22;25048;49.590;11.026;2023-05-07T10:53:21;26.60;92.80
29281;DHT22;25048;49.590;11.026;2023-05-07T10:55:52;27.00;91.80
29281;DHT22;25048;49.590;11.026;2023-05-07T10:58:29;27.40;93.10
29281;DHT22;25048;49.590;11.026;2023-05-07T11:01:03;27.50;91.80
29281;DHT22;25048;49.590;11.026;2023-05-07T11:03:28;27.40;90.00
29281;DHT22;25048;49.590;11.026;2023-05-07T11:06:13;27.10;90.40
29281;DHT22;25048;49.590;11.026;2023-05-07T11:08:57;26.80;89.30
29281;DHT22;25048;49.590;11.026;2023-05-07T11:11:44;26.40;89.80
29281;DHT22;25048;49.590;11.026;2023-05-07T11:14:14;26.50;92.70
29281;DHT22;25048;49.590;11.026;2023-05-07T11:16:43;26.60;90.00
29281;DHT22;25048;49.590;11.026;2023-05-07T11:19:11;26.60;90.80
29281;DHT22;25048;49.590;11.026;2023-05-07T11:21:40;27.10;91.30
29281;DHT22;25048;49.590;11.026;2023-05-07T11:24:09;27.40;89.40
29281;DHT22;25048;49.590;11.026;2023-05-07T11:26:45;27.50;90.90
29281;DHT22;25048;49.590;11.026;2023-05-07T11:29:18;27.70;87.30
29281;DHT22;25048;49.590;11.026;2023-05-07T11:31:54;28.00;87.90
29281;DHT22;25048;49.590;11.026;2023-05-07T11:34:23;28.00;83.60
29281;DHT22;25048;49.590;11.026;2023-05-07T11:36:51;28.10;81.70
29281;DHT22;25048;49.590;11.026;2023-05-07T11:39:32;28.10;87.10
29281;DHT22;25048;49.590;11.026;2023-05-07T11:42:01;28.20;83.40
29281;DHT22;25048;49.590;11.026;2023-05-07T11:44:47;28.30;79.50
29281;DHT22;25048;49.590;11.026;2023-05-07T11:47:17;28.00;80.50
29281;DHT22;25048;49.590;11.026;2023-05-07T11:49:47;28.30;82.00
29281;DHT22;25048;49.590;11.026;2023-05-07T11:52:15;28.10;78.80
29281;DHT22;25048;49.590;11.026;2023-05-07T11:54:48;28.00;78.90
29281;DHT22;25048;49.590;11.026;2023-05-07T11:57:16;27.80;77.50
29281;DHT22;25048;49.590;11.026;2023-05-07T11:59:44;27.80;79.90
29281;DHT22;25048;49.590;11.026;2023-05-07T12:02:14;27.30;81.20
29281;DHT22;25048;49.590;11.026;2023-05-07T12:04:42;27.10;80.10
29281;DHT22;25048;49.590;11.026;2023-05-07T12:07:13;27.50;82.10
29281;DHT22;25048;49.590;11.026;2023-05-07T12:09:42;27.60;80.20
29281;DHT22;25048;49.590;11.026;2023-05-07T12:12:10;27.90;80.40
29281;DHT22;25048;49.590;11.026;2023-05-07T12:14:41;27.70;80.60
29281;DHT22;25048;49.590;11.026;2023-05-07T12:17:11;28.20;84.10
29281;DHT22;25048;49.590;11.026;2023-05-07T12:19:40;28.50;78.40
29281;DHT22;25048;49.590;11.026;2023-05-07T12:22:09;28.40;77.30
29281;DHT22;25048;49.590;11.026;2023-05-07T12:24:48;28.50;79.40
29281;DHT22;25048;49.590;11.026;2023-05-07T12:27:16;29.00;82.10
29281;DHT22;25048;49.590;11.026;2023-05-07T12:29:46;28.80;75.10
29281;DHT22;25048;49.590;11.026;2023-05-07T12:32:15;28.30;76.30
29281;DHT22;25048;49.590;11.026;2023-05-07T12:34:44;28.30;79.50
29281;DHT22;25048;49.590;11.026;2023-05-07T12:37:12;28.40;78.40
29281;DHT22;25048;49.590;11.026;2023-05-07T12:39:49;28.90;77.00
29281;DHT22;25048;49.590;11.026;2023-05-07T12:42:22;29.10;72.80
29281;DHT22;25048;49.590;11.026;2023-05-07T12:44:51;29.40;78.00
29281;DHT22;25048;49.590;11.026;2023-05-07T12:47:18;29.70;73.50
29281;DHT22;25048;49.590;11.026;2023-05-07T12:49:47;30.30;75.50
29281;DHT22;25048;49.590;11.026;2023-05-07T12:52:15;31.00;73.30
29281;DHT22;25048;49.590;11.026;2023-05-07T12:54:44;30.90;66.70
29281;DHT22;25048;49.590;11.026;2023-05-07T12:57:12;29.90;68.40
29281;DHT22;25048;49.590;11.026;2023-05-07T12:59:40;28.70;67.90
29281;DHT22;25048;49.590;11.026;2023-05-07T13:02:08;27.90;70.40
29281;DHT22;25048;49.590;11.026;2023-05-07T13:04:36;27.70;75.60
29281;DHT22;25048;49.590;11.026;2023-05-07T13:07:04;28.00;73.00
29281;DHT22;25048;49.590;11.026;2023-05-07T13:09:31;27.70;73.10
29281;DHT22;25048;49.590;11.026;2023-05-07T13:11:59;27.30;72.70
29281;DHT22;25048;49.590;11.026;2023-05-07T13:14:29;26.80;71.30
29281;DHT22;25048;49.590;11.026;2023-05-07T13:16:56;27.20;73.00
29281;DHT22;25048;49.590;11.026;2023-05-07T13:19:24;28.60;72.30
29281;DHT22;25048;49.590;11.026;2023-05-07T13:21:51;29.80;67.30
29281;DHT22;25048;49.590;11.026;2023-05-07T13:24:19;31.00;68.30
29281;DHT22;25048;49.590;11.026;2023-05-07T13:26:47;32.30;65.70
29281;DHT22;25048;49.590;11.026;2023-05-07T13:29:14;33.20;62.40
29281;DHT22;25048;49.590;11.026;2023-05-07T13:31:42;33.90;59.80
29281;DHT22;25048;49.590;11.026;2023-05-07T13:34:10;34.60;60.50
29281;DHT22;25048;49.590;11.026;2023-05-07T13:36:38;35.40;57.10
29281;DHT22;25048;49.590;11.026;2023-05-07T13:39:06;35.70;53.50
29281;DHT22;25048;49.590;11.026;2023-05-07T13:41:33;35.40;54.00
29281;DHT22;25048;49.590;11.026;2023-05-07T13:44:01;36.00;55.10
29281;DHT22;25048;49.590;11.026;2023-05-07T13:46:28;36.80;52.50
29281;DHT22;25048;49.590;11.026;2023-05-07T13:48:56;37.40;50.10
29281;DHT22;25048;49.590;11.026;2023-05-07T13:51:24;37.70;48.30
29281;DHT22;25048;49.590;11.026;2023-05-07T13:53:52;37.70;45.50
29281;DHT22;25048;49.590;11.026;2023-05-07T13:56:20;37.20;48.10
29281;DHT22;25048;49.590;11.026;2023-05-07T13:58:48;37.30;46.60
29281;DHT22;25048;49.590;11.026;2023-05-07T14:01:15;36.80;45.30
29281;DHT22;25048;49.590;11.026;2023-05-07T14:03:43;36.60;45.60
29281;DHT22;25048;49.590;11.026;2023-05-07T14:06:11;36.60;46.90
29281;DHT22;25048;49.590;11.026;2023-05-07T14:08:38;36.00;44.80
29281;DHT22;25048;49.590;11.026;2023-05-07T14:11:06;34.20;44.90
29281;DHT22;25048;49.590;11.026;2023-05-07T14:13:33;32.80;47.90
29281;DHT22;25048;49.590;11.026;2023-05-07T14:16:01;31.60;49.10
29281;DHT22;25048;49.590;11.026;2023-05-07T14:18:29;30.40;49.70
29281;DHT22;25048;49.590;11.026;2023-05-07T14:20:56;29.20;50.90
29281;DHT22;25048;49.590;11.026;2023-05-07T14:23:24;28.30;53.50
29281;DHT22;25048;49.590;11.026;2023-05-07T14:25:53;27.70;54.50
29281;DHT22;25048;49.590;11.026;2023-05-07T14:28:20;27.30;55.50
29281;DHT22;25048;49.590;11.026;2023-05-07T14:30:49;27.10;56.70
29281;DHT22;25048;49.590;11.026;2023-05-07T14:33:17;27.10;61.10
29281;DHT22;25048;49.590;11.026;2023-05-07T14:35:45;27.50;59.70
29281;DHT22;25048;49.590;11.026;2023-05-07T14:38:14;29.40;58.20
29281;DHT22;25048;49.590;11.026;2023-05-07T14:40:42;30.80;53.60
29281;DHT22;25048;49.590;11.026;2023-05-07T14:43:09;30.80;53.30
29281;DHT22;25048;49.590;11.026;2023-05-07T14:45:37;30.40;53.40
29281;DHT22;25048;49.590;11.026;2023-05-07T14:48:05;29.90;52.00
29281;DHT22;25048;49.590;11.026;2023-05-07T14:50:32;29.30;53.40
29281;DHT22;25048;49.590;11.026;2023-05-07T14:53:00;28.90;53.00
29281;DHT22;25048;49.590;11.026;2023-05-07T14:55:27;28.30;52.90
29281;DHT22;25048;49.590;11.026;2023-05-07T14:57:56;27.80;55.80
29281;DHT22;25048;49.590;11.026;2023-05-07T15:00:23;27.50;56.20
29281;DHT22;25048;49.590;11.026;2023-05-07T15:02:51;27.40;57.60
29281;DHT22;25048;49.590;11.026;2023-05-07T15:05:18;27.50;58.90
29281;DHT22;25048;49.590;11.026;2023-05-07T15:07:46;27.40;58.70
29281;DHT22;25048;49.590;11.026;2023-05-07T15:10:13;27.10;57.80
29281;DHT22;25048;49.590;11.026;2023-05-07T15:12:41;26.90;57.60
29281;DHT22;25048;49.590;11.026;2023-05-07T15:15:09;26.60;59.30
29281;DHT22;25048;49.590;11.026;2023-05-07T15:17:37;26.60;60.00
29281;DHT22;25048;49.590;11.026;2023-05-07T15:20:05;26.60;57.60
29281;DHT22;25048;49.590;11.026;2023-05-07T15:22:33;26.60;58.90
29281;DHT22;25048;49.590;11.026;2023-05-07T15:25:02;26.60;58.10
29281;DHT22;25048;49.590;11.026;2023-05-07T15:27:30;26.50;56.10
29281;DHT22;25048;49.590;11.026;2023-05-07T15:29:58;26.30;58.00